DAL245 OMAA-KSLC
Flight info
| Callsign | DAL245 |
|---|---|
| Flight time | N/A |
| Altitude | 33000 |
| Route | DAXIB Q563 UKUVO G462 TUMAK L557 RAGAS P550 SYZ/N0509F340 P574 PEKAM L124 SAV N72 BAKUV N39 LASKA/K0906F340 N50 NUDKO T561 ADOGI L254 VULEZ/N0493F340 DCT NISPO DCT GODOB DCT ITVAV DCT ELVEN DCT 71N004E/M085F360 74N010W 75N030W 74N049W 72N066W/N0498F360 69N078W/N0498F380 65N087W DCT YEK J540 YVC Q959 MEETO Q896 YQL/N0487F390 J516 GTF/N0489F400 J9 DLN/N0490F390 J9 DBS CARTR1 |
| Aircraft | A35K/H-SDE2E3GHIJ3J4J5LM1ORWXY/LB1D1 |
Departure
| Time | 2026-04-29 17:18 |
|---|---|
| Airport | Zayed International Airport (OMAA) |
Arrival
| Time | N/A |
|---|---|
| Airport | Salt Lake City International Airport (KSLC) |
| Time | Latitude | Longitude | Altitude | Speed | Heading |
|---|---|---|---|---|---|
| 2026-04-29 17:08 | 24.42750 | 54.64788 | 95 ft | 0 kts | 300° |
| 2026-04-29 17:08 | 24.42748 | 54.64793 | 96 ft | 2 kts | 300° |
| 2026-04-29 17:09 | 24.42738 | 54.64812 | 95 ft | 3 kts | 298° |
| 2026-04-29 17:09 | 24.42728 | 54.64831 | 93 ft | 3 kts | 298° |
| 2026-04-29 17:09 | 24.42719 | 54.64851 | 94 ft | 3 kts | 300° |
| 2026-04-29 17:09 | 24.42709 | 54.64869 | 95 ft | 3 kts | 308° |
| 2026-04-29 17:10 | 24.42700 | 54.64881 | 93 ft | 3 kts | 335° |
| 2026-04-29 17:10 | 24.42692 | 54.64885 | 93 ft | 3 kts | 10° |
| 2026-04-29 17:10 | 24.42678 | 54.64880 | 93 ft | 3 kts | 34° |
| 2026-04-29 17:10 | 24.42665 | 54.64871 | 94 ft | 1 kts | 38° |
| 2026-04-29 17:11 | 24.42664 | 54.64869 | 95 ft | 0 kts | 38° |
| 2026-04-29 17:11 | 24.42676 | 54.64880 | 93 ft | 13 kts | 37° |
| 2026-04-29 17:11 | 24.42775 | 54.64962 | 97 ft | 18 kts | 37° |
| 2026-04-29 17:11 | 24.42870 | 54.64973 | 97 ft | 13 kts | 333° |
| 2026-04-29 17:12 | 24.42930 | 54.64904 | 99 ft | 12 kts | 310° |
| 2026-04-29 17:12 | 24.42999 | 54.64810 | 99 ft | 20 kts | 308° |
| 2026-04-29 17:12 | 24.43094 | 54.64674 | 97 ft | 23 kts | 308° |
| 2026-04-29 17:12 | 24.43160 | 54.64581 | 98 ft | 23 kts | 308° |
| 2026-04-29 17:13 | 24.43288 | 54.64409 | 98 ft | 21 kts | 319° |
| 2026-04-29 17:13 | 24.43418 | 54.64411 | 97 ft | 19 kts | 30° |
| 2026-04-29 17:13 | 24.43521 | 54.64495 | 97 ft | 18 kts | 37° |
| 2026-04-29 17:13 | 24.43618 | 54.64577 | 97 ft | 17 kts | 38° |
| 2026-04-29 17:14 | 24.43711 | 54.64656 | 97 ft | 16 kts | 38° |
| 2026-04-29 17:14 | 24.43799 | 54.64731 | 96 ft | 16 kts | 38° |
| 2026-04-29 17:14 | 24.43903 | 54.64820 | 96 ft | 25 kts | 38° |
| 2026-04-29 17:14 | 24.44063 | 54.64955 | 95 ft | 34 kts | 38° |
| 2026-04-29 17:15 | 24.44266 | 54.65128 | 93 ft | 37 kts | 38° |
| 2026-04-29 17:15 | 24.44469 | 54.65300 | 91 ft | 36 kts | 38° |
| 2026-04-29 17:15 | 24.44666 | 54.65467 | 87 ft | 35 kts | 37° |
| 2026-04-29 17:15 | 24.44855 | 54.65628 | 88 ft | 31 kts | 47° |
| 2026-04-29 17:16 | 24.44795 | 54.65788 | 88 ft | 24 kts | 126° |
| 2026-04-29 17:16 | 24.44677 | 54.65946 | 88 ft | 31 kts | 129° |
| 2026-04-29 17:16 | 24.44529 | 54.66151 | 89 ft | 38 kts | 127° |
| 2026-04-29 17:16 | 24.44355 | 54.66403 | 90 ft | 45 kts | 128° |
| 2026-04-29 17:17 | 24.44183 | 54.66641 | 89 ft | 31 kts | 130° |
| 2026-04-29 17:17 | 24.44208 | 54.66827 | 90 ft | 30 kts | 41° |
| 2026-04-29 17:17 | 24.44368 | 54.66833 | 90 ft | 14 kts | 311° |
| 2026-04-29 17:17 | 24.44405 | 54.66777 | 90 ft | 33 kts | 306° |
| 2026-04-29 17:18 | 24.44686 | 54.66384 | 88 ft | 98 kts | 308° |
| 2026-04-29 17:18 | 24.45235 | 54.65617 | 86 ft | 156 kts | 308° |
| 2026-04-29 17:18 | 24.45993 | 54.64541 | 311 ft | 181 kts | 309° |
| 2026-04-29 17:18 | 24.46742 | 54.63489 | 1086 ft | 175 kts | 311° |
| 2026-04-29 17:19 | 24.47788 | 54.62824 | 1576 ft | 176 kts | 345° |
| 2026-04-29 17:19 | 24.48965 | 54.62528 | 1962 ft | 171 kts | 347° |
| 2026-04-29 17:19 | 24.50116 | 54.62193 | 2266 ft | 172 kts | 343° |
| 2026-04-29 17:19 | 24.51255 | 54.61782 | 2521 ft | 173 kts | 340° |
| 2026-04-29 17:20 | 24.52385 | 54.61321 | 2778 ft | 173 kts | 339° |
| 2026-04-29 17:20 | 24.53509 | 54.60832 | 3092 ft | 174 kts | 338° |
| 2026-04-29 17:20 | 24.54655 | 54.60314 | 3252 ft | 183 kts | 337° |
| 2026-04-29 17:20 | 24.55867 | 54.59757 | 3399 ft | 195 kts | 337° |
| 2026-04-29 17:21 | 24.57154 | 54.59160 | 3565 ft | 207 kts | 336° |
| 2026-04-29 17:21 | 24.58519 | 54.58525 | 3712 ft | 219 kts | 336° |
| 2026-04-29 17:21 | 24.59980 | 54.57843 | 3803 ft | 236 kts | 336° |
| 2026-04-29 17:21 | 24.61506 | 54.57062 | 4071 ft | 245 kts | 329° |
| 2026-04-29 17:22 | 24.62793 | 54.55816 | 4416 ft | 251 kts | 311° |
| 2026-04-29 17:22 | 24.64029 | 54.54083 | 4773 ft | 259 kts | 308° |